sensor_id;sensor_type;location;lat;lon;timestamp;temperature;humidity
12847;DHT22;6492;48.128;8.320;2023-02-19T00:02:56;6.90;38.30
12847;DHT22;6492;48.128;8.320;2023-02-19T00:06:58;6.90;38.30
12847;DHT22;6492;48.128;8.320;2023-02-19T00:11:01;6.90;38.10
12847;DHT22;6492;48.128;8.320;2023-02-19T00:15:05;6.90;37.80
12847;DHT22;6492;48.128;8.320;2023-02-19T00:19:11;6.80;37.30
12847;DHT22;6492;48.128;8.320;2023-02-19T00:23:13;6.80;35.30
12847;DHT22;6492;48.128;8.320;2023-02-19T00:27:15;6.80;35.00
12847;DHT22;6492;48.128;8.320;2023-02-19T00:31:20;6.90;34.70
12847;DHT22;6492;48.128;8.320;2023-02-19T00:35:22;6.80;35.00
12847;DHT22;6492;48.128;8.320;2023-02-19T00:39:23;6.80;34.50
12847;DHT22;6492;48.128;8.320;2023-02-19T00:43:25;6.80;34.10
12847;DHT22;6492;48.128;8.320;2023-02-19T00:47:28;6.80;34.30
12847;DHT22;6492;48.128;8.320;2023-02-19T00:51:32;6.80;34.20
12847;DHT22;6492;48.128;8.320;2023-02-19T00:55:35;6.80;33.60
12847;DHT22;6492;48.128;8.320;2023-02-19T00:59:37;6.70;33.50
12847;DHT22;6492;48.128;8.320;2023-02-19T01:03:40;6.70;33.80
12847;DHT22;6492;48.128;8.320;2023-02-19T01:07:42;6.70;33.70
12847;DHT22;6492;48.128;8.320;2023-02-19T01:11:44;6.70;33.90
12847;DHT22;6492;48.128;8.320;2023-02-19T01:15:46;6.70;33.80
12847;DHT22;6492;48.128;8.320;2023-02-19T01:19:49;6.60;34.00
12847;DHT22;6492;48.128;8.320;2023-02-19T01:23:51;6.60;34.10
12847;DHT22;6492;48.128;8.320;2023-02-19T01:27:53;6.60;34.20
12847;DHT22;6492;48.128;8.320;2023-02-19T01:31:55;6.60;34.20
12847;DHT22;6492;48.128;8.320;2023-02-19T01:35:58;6.60;34.10
12847;DHT22;6492;48.128;8.320;2023-02-19T01:40:00;6.60;33.60
12847;DHT22;6492;48.128;8.320;2023-02-19T01:44:03;6.60;33.60
12847;DHT22;6492;48.128;8.320;2023-02-19T01:48:09;6.50;33.60
12847;DHT22;6492;48.128;8.320;2023-02-19T01:52:15;6.50;34.10
12847;DHT22;6492;48.128;8.320;2023-02-19T01:56:20;6.50;34.20
12847;DHT22;6492;48.128;8.320;2023-02-19T02:00:23;6.50;34.10
12847;DHT22;6492;48.128;8.320;2023-02-19T02:04:25;6.50;33.80
12847;DHT22;6492;48.128;8.320;2023-02-19T02:08:29;6.50;33.80
12847;DHT22;6492;48.128;8.320;2023-02-19T02:12:51;6.50;33.90
12847;DHT22;6492;48.128;8.320;2023-02-19T02:17:03;6.50;34.50
12847;DHT22;6492;48.128;8.320;2023-02-19T02:21:32;6.40;34.80
12847;DHT22;6492;48.128;8.320;2023-02-19T02:25:57;6.40;34.70
12847;DHT22;6492;48.128;8.320;2023-02-19T02:30:38;6.40;35.00
12847;DHT22;6492;48.128;8.320;2023-02-19T02:34:47;6.30;36.30
12847;DHT22;6492;48.128;8.320;2023-02-19T02:38:53;6.20;39.30
12847;DHT22;6492;48.128;8.320;2023-02-19T02:42:56;6.10;42.60
12847;DHT22;6492;48.128;8.320;2023-02-19T02:47:00;5.90;45.00
12847;DHT22;6492;48.128;8.320;2023-02-19T02:51:08;5.80;45.90
12847;DHT22;6492;48.128;8.320;2023-02-19T02:55:11;5.70;46.90
12847;DHT22;6492;48.128;8.320;2023-02-19T02:59:14;5.70;48.00
12847;DHT22;6492;48.128;8.320;2023-02-19T03:03:21;5.70;50.50
12847;DHT22;6492;48.128;8.320;2023-02-19T03:07:26;5.60;53.10
12847;DHT22;6492;48.128;8.320;2023-02-19T03:11:30;5.40;55.70
12847;DHT22;6492;48.128;8.320;2023-02-19T03:15:54;5.30;57.70
12847;DHT22;6492;48.128;8.320;2023-02-19T03:20:18;5.30;59.40
12847;DHT22;6492;48.128;8.320;2023-02-19T03:24:23;5.20;60.20
12847;DHT22;6492;48.128;8.320;2023-02-19T03:28:44;5.10;60.60
12847;DHT22;6492;48.128;8.320;2023-02-19T03:33:07;5.10;61.30
12847;DHT22;6492;48.128;8.320;2023-02-19T03:37:17;5.20;61.00
12847;DHT22;6492;48.128;8.320;2023-02-19T03:41:25;5.20;60.40
12847;DHT22;6492;48.128;8.320;2023-02-19T03:45:35;5.20;59.60
12847;DHT22;6492;48.128;8.320;2023-02-19T03:49:42;5.20;60.10
12847;DHT22;6492;48.128;8.320;2023-02-19T03:53:52;5.30;59.80
12847;DHT22;6492;48.128;8.320;2023-02-19T03:57:59;5.30;59.40
12847;DHT22;6492;48.128;8.320;2023-02-19T04:02:06;5.40;58.80
12847;DHT22;6492;48.128;8.320;2023-02-19T04:06:13;5.40;58.40
12847;DHT22;6492;48.128;8.320;2023-02-19T04:10:18;5.50;57.80
12847;DHT22;6492;48.128;8.320;2023-02-19T04:14:25;5.50;57.40
12847;DHT22;6492;48.128;8.320;2023-02-19T04:18:30;5.50;57.00
12847;DHT22;6492;48.128;8.320;2023-02-19T04:22:34;5.50;56.50
12847;DHT22;6492;48.128;8.320;2023-02-19T04:26:38;5.50;56.50
12847;DHT22;6492;48.128;8.320;2023-02-19T04:30:40;5.50;56.70
12847;DHT22;6492;48.128;8.320;2023-02-19T04:34:42;5.40;56.50
12847;DHT22;6492;48.128;8.320;2023-02-19T04:38:44;5.40;56.20
12847;DHT22;6492;48.128;8.320;2023-02-19T04:42:47;5.40;55.40
12847;DHT22;6492;48.128;8.320;2023-02-19T04:46:49;5.40;54.90
12847;DHT22;6492;48.128;8.320;2023-02-19T04:50:51;5.40;54.90
12847;DHT22;6492;48.128;8.320;2023-02-19T04:54:52;5.40;55.10
12847;DHT22;6492;48.128;8.320;2023-02-19T04:58:56;5.40;55.00
12847;DHT22;6492;48.128;8.320;2023-02-19T05:02:57;5.40;55.20
12847;DHT22;6492;48.128;8.320;2023-02-19T05:06:59;5.40;55.70
12847;DHT22;6492;48.128;8.320;2023-02-19T05:11:03;5.40;55.70
12847;DHT22;6492;48.128;8.320;2023-02-19T05:15:07;5.50;55.20
12847;DHT22;6492;48.128;8.320;2023-02-19T05:19:09;5.50;54.60
12847;DHT22;6492;48.128;8.320;2023-02-19T05:23:11;5.60;53.10
12847;DHT22;6492;48.128;8.320;2023-02-19T05:27:13;5.60;52.50
12847;DHT22;6492;48.128;8.320;2023-02-19T05:31:16;5.60;53.10
12847;DHT22;6492;48.128;8.320;2023-02-19T05:35:18;5.60;51.20
12847;DHT22;6492;48.128;8.320;2023-02-19T05:39:20;5.60;51.70
12847;DHT22;6492;48.128;8.320;2023-02-19T05:43:22;5.60;51.50
12847;DHT22;6492;48.128;8.320;2023-02-19T05:47:25;5.60;51.40
12847;DHT22;6492;48.128;8.320;2023-02-19T05:51:26;5.60;51.10
12847;DHT22;6492;48.128;8.320;2023-02-19T05:55:28;5.60;52.20
12847;DHT22;6492;48.128;8.320;2023-02-19T05:59:30;5.50;52.90
12847;DHT22;6492;48.128;8.320;2023-02-19T06:03:33;5.50;53.60
12847;DHT22;6492;48.128;8.320;2023-02-19T06:07:36;5.40;55.50
12847;DHT22;6492;48.128;8.320;2023-02-19T06:11:39;5.30;57.30
12847;DHT22;6492;48.128;8.320;2023-02-19T06:15:42;5.20;59.00
12847;DHT22;6492;48.128;8.320;2023-02-19T06:19:45;5.20;60.10
12847;DHT22;6492;48.128;8.320;2023-02-19T06:23:47;5.10;61.50
12847;DHT22;6492;48.128;8.320;2023-02-19T06:27:49;5.00;62.60
12847;DHT22;6492;48.128;8.320;2023-02-19T06:31:51;5.00;62.20
12847;DHT22;6492;48.128;8.320;2023-02-19T06:35:56;5.00;62.80
12847;DHT22;6492;48.128;8.320;2023-02-19T06:39:58;4.90;63.00
12847;DHT22;6492;48.128;8.320;2023-02-19T06:44:00;4.90;63.60
12847;DHT22;6492;48.128;8.320;2023-02-19T06:48:02;4.80;63.90
12847;DHT22;6492;48.128;8.320;2023-02-19T06:52:05;4.80;65.10
12847;DHT22;6492;48.128;8.320;2023-02-19T06:56:21;4.80;65.90
12847;DHT22;6492;48.128;8.320;2023-02-19T07:00:24;4.80;66.90
12847;DHT22;6492;48.128;8.320;2023-02-19T07:04:26;4.70;67.80
12847;DHT22;6492;48.128;8.320;2023-02-19T07:08:29;4.70;68.00
12847;DHT22;6492;48.128;8.320;2023-02-19T07:12:31;4.70;68.00
12847;DHT22;6492;48.128;8.320;2023-02-19T07:16:33;4.60;68.20
12847;DHT22;6492;48.128;8.320;2023-02-19T07:20:35;4.60;68.90
12847;DHT22;6492;48.128;8.320;2023-02-19T07:24:39;4.60;69.00
12847;DHT22;6492;48.128;8.320;2023-02-19T07:28:41;4.60;69.50
12847;DHT22;6492;48.128;8.320;2023-02-19T07:32:43;4.50;69.60
12847;DHT22;6492;48.128;8.320;2023-02-19T07:36:45;4.60;69.70
12847;DHT22;6492;48.128;8.320;2023-02-19T07:40:51;4.60;69.90
12847;DHT22;6492;48.128;8.320;2023-02-19T07:44:53;4.60;70.20
12847;DHT22;6492;48.128;8.320;2023-02-19T07:48:55;4.60;70.60
12847;DHT22;6492;48.128;8.320;2023-02-19T07:52:57;4.50;70.80
12847;DHT22;6492;48.128;8.320;2023-02-19T07:57:00;4.50;71.00
12847;DHT22;6492;48.128;8.320;2023-02-19T08:01:06;4.50;70.40
12847;DHT22;6492;48.128;8.320;2023-02-19T08:05:08;4.50;69.60
12847;DHT22;6492;48.128;8.320;2023-02-19T08:09:11;4.40;69.50
12847;DHT22;6492;48.128;8.320;2023-02-19T08:13:15;4.40;68.90
12847;DHT22;6492;48.128;8.320;2023-02-19T08:17:19;4.30;68.20
12847;DHT22;6492;48.128;8.320;2023-02-19T08:21:21;4.20;68.30
12847;DHT22;6492;48.128;8.320;2023-02-19T08:25:23;4.20;68.50
12847;DHT22;6492;48.128;8.320;2023-02-19T08:29:27;4.20;68.20
12847;DHT22;6492;48.128;8.320;2023-02-19T08:33:29;4.30;68.50
12847;DHT22;6492;48.128;8.320;2023-02-19T08:37:31;4.30;66.50
12847;DHT22;6492;48.128;8.320;2023-02-19T08:41:40;4.40;66.60
12847;DHT22;6492;48.128;8.320;2023-02-19T08:46:21;4.50;67.40
12847;DHT22;6492;48.128;8.320;2023-02-19T08:50:23;4.70;65.90
12847;DHT22;6492;48.128;8.320;2023-02-19T08:54:26;4.70;62.60
12847;DHT22;6492;48.128;8.320;2023-02-19T08:58:28;4.80;61.60
12847;DHT22;6492;48.128;8.320;2023-02-19T09:02:31;4.80;60.20
12847;DHT22;6492;48.128;8.320;2023-02-19T09:06:32;4.80;58.00
12847;DHT22;6492;48.128;8.320;2023-02-19T09:10:34;5.00;57.70
12847;DHT22;6492;48.128;8.320;2023-02-19T09:14:38;4.90;55.70
12847;DHT22;6492;48.128;8.320;2023-02-19T09:18:41;5.00;55.80
12847;DHT22;6492;48.128;8.320;2023-02-19T09:22:45;5.20;54.10
12847;DHT22;6492;48.128;8.320;2023-02-19T09:26:48;5.20;51.30
12847;DHT22;6492;48.128;8.320;2023-02-19T09:30:50;5.40;52.00
12847;DHT22;6492;48.128;8.320;2023-02-19T09:34:54;5.50;48.30
12847;DHT22;6492;48.128;8.320;2023-02-19T09:38:56;5.50;47.60
12847;DHT22;6492;48.128;8.320;2023-02-19T09:43:05;5.50;49.50
12847;DHT22;6492;48.128;8.320;2023-02-19T09:47:15;5.60;51.40
12847;DHT22;6492;48.128;8.320;2023-02-19T09:51:19;5.70;48.70
12847;DHT22;6492;48.128;8.320;2023-02-19T09:55:28;5.80;45.00
12847;DHT22;6492;48.128;8.320;2023-02-19T09:59:38;5.80;44.80
12847;DHT22;6492;48.128;8.320;2023-02-19T10:03:43;6.10;43.80
12847;DHT22;6492;48.128;8.320;2023-02-19T10:07:49;6.50;39.60
12847;DHT22;6492;48.128;8.320;2023-02-19T10:11:53;6.60;38.20
12847;DHT22;6492;48.128;8.320;2023-02-19T10:15:57;6.60;37.20
12847;DHT22;6492;48.128;8.320;2023-02-19T10:20:01;6.50;36.10
12847;DHT22;6492;48.128;8.320;2023-02-19T10:24:06;6.40;36.80
12847;DHT22;6492;48.128;8.320;2023-02-19T10:28:13;6.40;36.60
12847;DHT22;6492;48.128;8.320;2023-02-19T10:32:16;6.40;36.90
12847;DHT22;6492;48.128;8.320;2023-02-19T10:36:25;6.40;35.20
12847;DHT22;6492;48.128;8.320;2023-02-19T10:40:29;6.50;34.60
12847;DHT22;6492;48.128;8.320;2023-02-19T10:44:37;6.30;35.30
12847;DHT22;6492;48.128;8.320;2023-02-19T10:48:46;6.10;35.20
12847;DHT22;6492;48.128;8.320;2023-02-19T10:52:52;6.00;36.50
12847;DHT22;6492;48.128;8.320;2023-02-19T10:57:15;6.10;37.30
12847;DHT22;6492;48.128;8.320;2023-02-19T11:01:25;6.20;36.00
12847;DHT22;6492;48.128;8.320;2023-02-19T11:05:27;6.30;36.00
12847;DHT22;6492;48.128;8.320;2023-02-19T11:09:33;6.30;36.10
12847;DHT22;6492;48.128;8.320;2023-02-19T11:13:41;6.50;35.60
12847;DHT22;6492;48.128;8.320;2023-02-19T11:18:14;6.60;34.00
12847;DHT22;6492;48.128;8.320;2023-02-19T11:22:28;6.60;34.20
12847;DHT22;6492;48.128;8.320;2023-02-19T11:26:32;6.50;34.30
12847;DHT22;6492;48.128;8.320;2023-02-19T11:30:51;6.30;34.90
12847;DHT22;6492;48.128;8.320;2023-02-19T11:35:12;6.20;34.20
12847;DHT22;6492;48.128;8.320;2023-02-19T11:39:20;6.10;34.10
12847;DHT22;6492;48.128;8.320;2023-02-19T11:43:34;6.10;34.80
12847;DHT22;6492;48.128;8.320;2023-02-19T11:52:40;6.00;35.50
12847;DHT22;6492;48.128;8.320;2023-02-19T11:56:42;6.00;36.00
12847;DHT22;6492;48.128;8.320;2023-02-19T12:00:54;6.00;36.00
12847;DHT22;6492;48.128;8.320;2023-02-19T12:05:26;5.90;36.10
12847;DHT22;6492;48.128;8.320;2023-02-19T12:09:42;5.90;36.20
12847;DHT22;6492;48.128;8.320;2023-02-19T12:14:02;5.90;36.10
12847;DHT22;6492;48.128;8.320;2023-02-19T12:18:23;5.80;37.10
12847;DHT22;6492;48.128;8.320;2023-02-19T12:22:31;5.70;36.70
12847;DHT22;6492;48.128;8.320;2023-02-19T12:26:40;5.70;37.10
12847;DHT22;6492;48.128;8.320;2023-02-19T12:31:23;5.80;37.00
12847;DHT22;6492;48.128;8.320;2023-02-19T12:35:54;5.90;37.10
12847;DHT22;6492;48.128;8.320;2023-02-19T12:40:08;6.00;36.10
12847;DHT22;6492;48.128;8.320;2023-02-19T12:44:17;6.00;35.20
12847;DHT22;6492;48.128;8.320;2023-02-19T12:48:27;6.30;34.30
12847;DHT22;6492;48.128;8.320;2023-02-19T12:52:33;6.60;33.30
12847;DHT22;6492;48.128;8.320;2023-02-19T12:56:43;6.90;31.20
12847;DHT22;6492;48.128;8.320;2023-02-19T13:00:51;6.90;29.40
12847;DHT22;6492;48.128;8.320;2023-02-19T13:05:04;6.80;29.70
12847;DHT22;6492;48.128;8.320;2023-02-19T13:09:12;6.80;29.80
12847;DHT22;6492;48.128;8.320;2023-02-19T13:13:20;6.90;29.80
12847;DHT22;6492;48.128;8.320;2023-02-19T13:17:28;6.70;29.90
12847;DHT22;6492;48.128;8.320;2023-02-19T13:21:35;6.40;30.00
12847;DHT22;6492;48.128;8.320;2023-02-19T13:26:19;6.20;31.10
12847;DHT22;6492;48.128;8.320;2023-02-19T13:30:42;6.20;30.70
12847;DHT22;6492;48.128;8.320;2023-02-19T13:35:03;6.20;29.30
12847;DHT22;6492;48.128;8.320;2023-02-19T13:39:20;6.20;29.70
12847;DHT22;6492;48.128;8.320;2023-02-19T13:43:24;6.30;28.50
12847;DHT22;6492;48.128;8.320;2023-02-19T13:47:48;6.50;28.20
12847;DHT22;6492;48.128;8.320;2023-02-19T13:51:57;6.50;26.90
12847;DHT22;6492;48.128;8.320;2023-02-19T13:55:59;6.40;28.10
12847;DHT22;6492;48.128;8.320;2023-02-19T14:04:47;6.40;29.00
12847;DHT22;6492;48.128;8.320;2023-02-19T14:08:54;6.50;29.70
12847;DHT22;6492;48.128;8.320;2023-02-19T14:12:56;6.50;28.80
12847;DHT22;6492;48.128;8.320;2023-02-19T14:17:36;6.50;28.90
12847;DHT22;6492;48.128;8.320;2023-02-19T14:21:39;6.50;28.80
12847;DHT22;6492;48.128;8.320;2023-02-19T14:25:53;6.40;29.10
12847;DHT22;6492;48.128;8.320;2023-02-19T14:29:57;6.20;29.20
12847;DHT22;6492;48.128;8.320;2023-02-19T14:34:02;6.10;29.20
12847;DHT22;6492;48.128;8.320;2023-02-19T14:38:05;6.10;28.40
12847;DHT22;6492;48.128;8.320;2023-02-19T14:42:15;6.20;28.10
12847;DHT22;6492;48.128;8.320;2023-02-19T14:46:28;6.10;28.90
12847;DHT22;6492;48.128;8.320;2023-02-19T14:50:31;6.10;29.10
12847;DHT22;6492;48.128;8.320;2023-02-19T14:54:42;6.00;28.90
12847;DHT22;6492;48.128;8.320;2023-02-19T14:58:46;6.00;29.40
12847;DHT22;6492;48.128;8.320;2023-02-19T15:03:20;6.00;27.90
12847;DHT22;6492;48.128;8.320;2023-02-19T15:07:41;5.90;28.40
12847;DHT22;6492;48.128;8.320;2023-02-19T15:11:55;5.80;28.30
12847;DHT22;6492;48.128;8.320;2023-02-19T15:16:23;5.70;28.70
12847;DHT22;6492;48.128;8.320;2023-02-19T15:20:33;5.60;28.80
12847;DHT22;6492;48.128;8.320;2023-02-19T15:24:35;5.50;29.40
12847;DHT22;6492;48.128;8.320;2023-02-19T15:28:37;5.50;29.80
12847;DHT22;6492;48.128;8.320;2023-02-19T15:32:42;5.40;30.60
12847;DHT22;6492;48.128;8.320;2023-02-19T15:36:55;5.40;31.20
12847;DHT22;6492;48.128;8.320;2023-02-19T15:40:58;5.30;32.60
12847;DHT22;6492;48.128;8.320;2023-02-19T15:45:18;5.30;33.60
12847;DHT22;6492;48.128;8.320;2023-02-19T15:49:27;5.30;34.50
12847;DHT22;6492;48.128;8.320;2023-02-19T15:53:33;5.20;35.00
12847;DHT22;6492;48.128;8.320;2023-02-19T15:57:39;5.20;35.10
12847;DHT22;6492;48.128;8.320;2023-02-19T16:01:43;5.20;33.90
12847;DHT22;6492;48.128;8.320;2023-02-19T16:06:15;5.20;34.70
12847;DHT22;6492;48.128;8.320;2023-02-19T16:10:25;5.10;34.20
12847;DHT22;6492;48.128;8.320;2023-02-19T16:14:31;5.00;34.70
12847;DHT22;6492;48.128;8.320;2023-02-19T16:18:34;5.00;35.20
12847;DHT22;6492;48.128;8.320;2023-02-19T16:22:40;5.00;35.20
12847;DHT22;6492;48.128;8.320;2023-02-19T16:26:44;4.90;34.70
12847;DHT22;6492;48.128;8.320;2023-02-19T16:30:46;4.90;34.70
12847;DHT22;6492;48.128;8.320;2023-02-19T16:34:55;4.90;34.80
12847;DHT22;6492;48.128;8.320;2023-02-19T16:39:20;4.90;34.80
12847;DHT22;6492;48.128;8.320;2023-02-19T16:43:28;4.80;34.40
12847;DHT22;6492;48.128;8.320;2023-02-19T16:47:31;4.80;34.30
12847;DHT22;6492;48.128;8.320;2023-02-19T16:51:34;4.80;34.50
12847;DHT22;6492;48.128;8.320;2023-02-19T16:55:55;4.80;34.60
12847;DHT22;6492;48.128;8.320;2023-02-19T16:59:57;4.80;34.70
12847;DHT22;6492;48.128;8.320;2023-02-19T17:04:01;4.80;34.70
12847;DHT22;6492;48.128;8.320;2023-02-19T17:08:12;4.80;34.70
12847;DHT22;6492;48.128;8.320;2023-02-19T17:12:21;4.70;34.80
12847;DHT22;6492;48.128;8.320;2023-02-19T17:16:25;4.70;35.10
12847;DHT22;6492;48.128;8.320;2023-02-19T17:20:33;4.70;35.40
12847;DHT22;6492;48.128;8.320;2023-02-19T17:24:36;4.60;35.50
12847;DHT22;6492;48.128;8.320;2023-02-19T17:28:39;4.60;35.50
12847;DHT22;6492;48.128;8.320;2023-02-19T17:32:41;4.60;35.70
12847;DHT22;6492;48.128;8.320;2023-02-19T17:36:43;4.60;35.80
12847;DHT22;6492;48.128;8.320;2023-02-19T17:40:45;4.60;35.60
12847;DHT22;6492;48.128;8.320;2023-02-19T17:44:48;4.60;36.10
12847;DHT22;6492;48.128;8.320;2023-02-19T17:48:51;4.50;36.20
12847;DHT22;6492;48.128;8.320;2023-02-19T17:52:54;4.50;36.70
12847;DHT22;6492;48.128;8.320;2023-02-19T17:56:55;4.50;36.70
12847;DHT22;6492;48.128;8.320;2023-02-19T18:00:58;4.50;36.60
12847;DHT22;6492;48.128;8.320;2023-02-19T18:05:00;4.50;36.90
12847;DHT22;6492;48.128;8.320;2023-02-19T18:09:06;4.50;37.30
12847;DHT22;6492;48.128;8.320;2023-02-19T18:13:08;4.50;37.70
12847;DHT22;6492;48.128;8.320;2023-02-19T18:17:11;4.50;37.90
12847;DHT22;6492;48.128;8.320;2023-02-19T18:21:13;4.40;38.10
12847;DHT22;6492;48.128;8.320;2023-02-19T18:25:34;4.40;37.90
12847;DHT22;6492;48.128;8.320;2023-02-19T18:29:35;4.40;38.00
12847;DHT22;6492;48.128;8.320;2023-02-19T18:33:38;4.40;38.00
12847;DHT22;6492;48.128;8.320;2023-02-19T18:37:40;4.40;38.20
12847;DHT22;6492;48.128;8.320;2023-02-19T18:41:45;4.40;38.00
12847;DHT22;6492;48.128;8.320;2023-02-19T18:45:47;4.40;38.70
12847;DHT22;6492;48.128;8.320;2023-02-19T18:49:52;4.40;38.20
12847;DHT22;6492;48.128;8.320;2023-02-19T18:53:54;4.40;38.60
12847;DHT22;6492;48.128;8.320;2023-02-19T18:57:55;4.40;38.70
12847;DHT22;6492;48.128;8.320;2023-02-19T19:01:57;4.40;38.90
12847;DHT22;6492;48.128;8.320;2023-02-19T19:06:00;4.40;39.20
12847;DHT22;6492;48.128;8.320;2023-02-19T19:10:03;4.40;39.00
12847;DHT22;6492;48.128;8.320;2023-02-19T19:14:04;4.40;39.20
12847;DHT22;6492;48.128;8.320;2023-02-19T19:18:09;4.40;39.50
12847;DHT22;6492;48.128;8.320;2023-02-19T19:22:12;4.40;39.50
12847;DHT22;6492;48.128;8.320;2023-02-19T19:26:15;4.40;38.90
12847;DHT22;6492;48.128;8.320;2023-02-19T19:30:18;4.40;39.10
12847;DHT22;6492;48.128;8.320;2023-02-19T19:34:20;4.40;38.80
12847;DHT22;6492;48.128;8.320;2023-02-19T19:38:23;4.40;38.50
12847;DHT22;6492;48.128;8.320;2023-02-19T19:42:25;4.50;38.00
12847;DHT22;6492;48.128;8.320;2023-02-19T19:46:26;4.40;37.90
12847;DHT22;6492;48.128;8.320;2023-02-19T19:50:28;4.40;38.30
12847;DHT22;6492;48.128;8.320;2023-02-19T19:54:31;4.30;38.60
12847;DHT22;6492;48.128;8.320;2023-02-19T19:58:33;4.20;39.10
12847;DHT22;6492;48.128;8.320;2023-02-19T20:02:36;4.20;39.30
12847;DHT22;6492;48.128;8.320;2023-02-19T20:06:38;4.10;39.50
12847;DHT22;6492;48.128;8.320;2023-02-19T20:10:41;4.10;39.40
12847;DHT22;6492;48.128;8.320;2023-02-19T20:14:43;4.20;39.30
12847;DHT22;6492;48.128;8.320;2023-02-19T20:18:46;4.20;38.90
12847;DHT22;6492;48.128;8.320;2023-02-19T20:22:47;4.20;38.30
12847;DHT22;6492;48.128;8.320;2023-02-19T20:26:53;4.20;38.40
12847;DHT22;6492;48.128;8.320;2023-02-19T20:30:57;4.20;38.80
12847;DHT22;6492;48.128;8.320;2023-02-19T20:34:59;4.20;39.20
12847;DHT22;6492;48.128;8.320;2023-02-19T20:39:04;4.30;39.50
12847;DHT22;6492;48.128;8.320;2023-02-19T20:43:07;4.30;40.30
12847;DHT22;6492;48.128;8.320;2023-02-19T20:47:09;4.30;40.80
12847;DHT22;6492;48.128;8.320;2023-02-19T20:51:11;4.30;41.20
12847;DHT22;6492;48.128;8.320;2023-02-19T20:55:37;4.30;41.60
12847;DHT22;6492;48.128;8.320;2023-02-19T20:59:40;4.30;42.00
12847;DHT22;6492;48.128;8.320;2023-02-19T21:03:43;4.20;42.30
12847;DHT22;6492;48.128;8.320;2023-02-19T21:07:45;4.20;42.50
12847;DHT22;6492;48.128;8.320;2023-02-19T21:11:47;4.20;42.50
12847;DHT22;6492;48.128;8.320;2023-02-19T21:15:50;4.20;42.60
12847;DHT22;6492;48.128;8.320;2023-02-19T21:20:16;4.20;43.00
12847;DHT22;6492;48.128;8.320;2023-02-19T21:24:18;4.10;43.00
12847;DHT22;6492;48.128;8.320;2023-02-19T21:28:20;4.10;42.90
12847;DHT22;6492;48.128;8.320;2023-02-19T21:32:23;4.00;42.80
12847;DHT22;6492;48.128;8.320;2023-02-19T21:36:25;4.00;43.80
12847;DHT22;6492;48.128;8.320;2023-02-19T21:40:27;4.00;44.30
12847;DHT22;6492;48.128;8.320;2023-02-19T21:44:31;4.00;44.00
12847;DHT22;6492;48.128;8.320;2023-02-19T21:48:34;4.10;43.80
12847;DHT22;6492;48.128;8.320;2023-02-19T21:52:36;4.10;43.50
12847;DHT22;6492;48.128;8.320;2023-02-19T21:56:37;4.10;43.40
12847;DHT22;6492;48.128;8.320;2023-02-19T22:00:39;4.10;43.10
12847;DHT22;6492;48.128;8.320;2023-02-19T22:04:42;4.10;43.70
12847;DHT22;6492;48.128;8.320;2023-02-19T22:08:44;4.00;43.80
12847;DHT22;6492;48.128;8.320;2023-02-19T22:12:46;3.90;45.00
12847;DHT22;6492;48.128;8.320;2023-02-19T22:16:48;3.80;45.40
12847;DHT22;6492;48.128;8.320;2023-02-19T22:20:52;3.80;46.20
12847;DHT22;6492;48.128;8.320;2023-02-19T22:24:54;3.70;46.70
12847;DHT22;6492;48.128;8.320;2023-02-19T22:28:56;3.70;47.10
12847;DHT22;6492;48.128;8.320;2023-02-19T22:32:59;3.60;47.50
12847;DHT22;6492;48.128;8.320;2023-02-19T22:37:02;3.60;47.90
12847;DHT22;6492;48.128;8.320;2023-02-19T22:41:04;3.50;48.70
12847;DHT22;6492;48.128;8.320;2023-02-19T22:45:06;3.40;49.50
12847;DHT22;6492;48.128;8.320;2023-02-19T22:49:08;3.40;49.50
12847;DHT22;6492;48.128;8.320;2023-02-19T22:53:11;3.30;50.00
12847;DHT22;6492;48.128;8.320;2023-02-19T22:57:14;3.10;50.30
12847;DHT22;6492;48.128;8.320;2023-02-19T23:01:16;3.10;50.80
12847;DHT22;6492;48.128;8.320;2023-02-19T23:05:17;2.90;51.20
12847;DHT22;6492;48.128;8.320;2023-02-19T23:09:23;2.90;51.90
12847;DHT22;6492;48.128;8.320;2023-02-19T23:13:25;2.80;52.80
12847;DHT22;6492;48.128;8.320;2023-02-19T23:17:27;2.80;54.30
12847;DHT22;6492;48.128;8.320;2023-02-19T23:21:28;2.80;54.60
12847;DHT22;6492;48.128;8.320;2023-02-19T23:25:32;2.90;55.00
12847;DHT22;6492;48.128;8.320;2023-02-19T23:29:33;2.80;55.10
12847;DHT22;6492;48.128;8.320;2023-02-19T23:33:35;2.90;55.60
12847;DHT22;6492;48.128;8.320;2023-02-19T23:37:37;2.90;55.80
12847;DHT22;6492;48.128;8.320;2023-02-19T23:41:44;3.00;56.90
12847;DHT22;6492;48.128;8.320;2023-02-19T23:45:46;3.10;56.40
12847;DHT22;6492;48.128;8.320;2023-02-19T23:49:48;3.20;56.30
12847;DHT22;6492;48.128;8.320;2023-02-19T23:53:50;3.30;55.80
12847;DHT22;6492;48.128;8.320;2023-02-19T23:57:53;3.40;55.00
